Time;durP1;ratioP1;P1;durP2;ratioP2;P2;SDS_P1;SDS_P2;PMS_P1;PMS_P2;Temp;Humidity;BMP_temperature;BMP_pressure;BME280_temperature;BME280_humidity;BME280_pressure;Samples;Min_cycle;Max_cycle;Signal;HPM_P1;HPM_P2
2022/06/07 00:00:41;;;;;;;2.30;2.10;;;13.40;99.90;;;;;;5028527;28;20184;-78
2022/06/07 00:03:06;;;;;;;6.40;2.93;;;13.40;99.90;;;;;;5028498;28;20543;-77
2022/06/07 00:05:32;;;;;;;3.33;2.43;;;13.30;99.90;;;;;;5028436;28;20177;-78
2022/06/07 00:07:58;;;;;;;3.87;2.80;;;13.20;99.90;;;;;;5028643;28;20208;-76
2022/06/07 00:10:25;;;;;;;4.83;3.10;;;13.20;99.90;;;;;;5028634;28;20177;-77
2022/06/07 00:12:51;;;;;;;3.63;3.17;;;13.20;99.90;;;;;;5028136;28;20283;-77
2022/06/07 00:15:17;;;;;;;3.50;2.90;;;13.20;99.90;;;;;;5028131;28;20179;-77
2022/06/07 00:17:44;;;;;;;4.67;2.80;;;13.30;99.90;;;;;;5028092;28;20179;-77
2022/06/07 00:20:11;;;;;;;3.57;3.10;;;13.30;99.90;;;;;;5028559;28;20178;-77
2022/06/07 00:22:37;;;;;;;3.97;3.20;;;13.30;99.90;;;;;;5028254;28;20418;-77
2022/06/07 00:25:05;;;;;;;8.47;3.63;;;13.30;99.90;;;;;;5028393;28;20235;-77
2022/06/07 00:27:30;;;;;;;5.50;3.80;;;13.20;99.90;;;;;;5028290;28;20210;-76
2022/06/07 00:29:57;;;;;;;4.93;3.80;;;13.20;99.90;;;;;;5028473;28;20263;-75
2022/06/07 00:32:24;;;;;;;7.40;4.27;;;13.20;99.90;;;;;;5028428;28;20190;-78
2022/06/07 00:34:50;;;;;;;8.83;4.27;;;13.20;99.90;;;;;;5028510;28;20174;-78
2022/06/07 00:37:16;;;;;;;5.53;4.70;;;13.20;99.90;;;;;;5028867;28;20182;-79
2022/06/07 00:39:41;;;;;;;8.50;4.70;;;13.20;99.90;;;;;;5028248;28;20185;-77
2022/06/07 00:42:08;;;;;;;7.40;4.97;;;13.30;99.90;;;;;;5028045;28;20196;-79
2022/06/07 00:44:44;;;;;;;7.60;5.03;;;13.30;99.90;;;;;;5028502;28;20237;-77
2022/06/07 00:47:17;;;;;;;8.40;4.93;;;13.30;99.90;;;;;;5028356;28;20544;-78
2022/06/07 00:50:04;;;;;;;7.43;5.23;;;13.30;99.90;;;;;;5028145;28;20176;-78
2022/06/07 00:52:33;;;;;;;8.40;5.30;;;13.30;99.90;;;;;;4996451;28;20185;-77
2022/06/07 00:54:59;;;;;;;9.43;5.27;;;13.30;99.90;;;;;;5028234;28;20206;-79
2022/06/07 00:57:25;;;;;;;11.97;6.53;;;13.30;99.90;;;;;;5027954;28;20231;-79
2022/06/07 00:59:51;;;;;;;12.43;6.43;;;13.20;99.90;;;;;;5027628;28;20176;-77
2022/06/07 01:02:19;;;;;;;20.13;7.10;;;13.30;99.90;;;;;;5011326;28;20282;-77
2022/06/07 01:04:45;;;;;;;11.90;7.47;;;13.30;99.90;;;;;;5028272;28;20561;-75
2022/06/07 01:12:39;;;;;;;9.73;6.60;;;13.40;99.90;;;;;;4996262;28;20631;-76
2022/06/07 01:15:08;;;;;;;14.57;7.03;;;13.40;99.90;;;;;;5026546;28;20185;-76
2022/06/07 01:17:34;;;;;;;17.17;7.80;;;13.40;99.90;;;;;;5027114;28;20178;-77
2022/06/07 01:19:59;;;;;;;12.73;7.77;;;13.40;99.90;;;;;;5027586;28;20186;-77
2022/06/07 01:22:25;;;;;;;16.93;8.57;;;13.40;99.90;;;;;;4995660;28;20255;-75
2022/06/07 01:24:52;;;;;;;15.83;8.83;;;13.40;99.90;;;;;;5027329;28;20622;-75
2022/06/07 01:27:17;;;;;;;17.60;9.17;;;13.40;99.90;;;;;;5027423;28;20269;-77
2022/06/07 01:29:43;;;;;;;16.23;8.70;;;13.40;99.90;;;;;;5027252;28;20183;-78
2022/06/07 01:32:10;;;;;;;16.30;9.13;;;13.40;99.90;;;;;;5026248;28;20204;-76
2022/06/07 01:34:42;;;;;;;22.43;9.73;;;13.40;99.90;;;;;;5027068;28;20221;-77
2022/06/07 01:37:10;;;;;;;16.37;9.60;;;13.40;99.90;;;;;;5027567;28;20190;-77
2022/06/07 01:42:21;;;;;;;16.67;9.07;;;13.40;99.90;;;;;;4995478;28;20217;-79
2022/06/07 01:44:48;;;;;;;23.53;9.63;;;13.50;99.90;;;;;;5027005;28;20657;-78
2022/06/07 01:47:19;;;;;;;16.80;9.10;;;13.50;99.90;;;;;;5027102;28;20731;-78
2022/06/07 01:49:45;;;;;;;17.47;9.93;;;13.50;99.90;;;;;;4995965;28;20171;-79
2022/06/07 01:52:17;;;;;;;14.73;8.90;;;13.40;99.90;;;;;;5026315;28;20570;-78
2022/06/07 01:54:42;;;;;;;15.83;9.33;;;13.40;99.90;;;;;;5026827;28;20177;-78
2022/06/07 01:57:08;;;;;;;18.33;9.93;;;13.40;99.90;;;;;;5026850;28;20328;-77
2022/06/07 01:59:36;;;;;;;19.10;9.93;;;13.50;99.90;;;;;;5026912;28;20198;-76
2022/06/07 02:02:02;;;;;;;22.07;9.97;;;13.40;99.90;;;;;;5025837;28;20202;-76
2022/06/07 02:04:27;;;;;;;17.77;9.90;;;13.40;99.90;;;;;;5026110;28;20263;-78
2022/06/07 02:06:53;;;;;;;20.20;9.80;;;13.40;99.90;;;;;;4994381;28;20230;-76
2022/06/07 02:09:19;;;;;;;18.87;9.63;;;13.40;99.90;;;;;;5025896;28;20188;-77
2022/06/07 02:11:45;;;;;;;23.87;10.83;;;13.30;99.90;;;;;;5025905;28;20202;-77
2022/06/07 02:14:12;;;;;;;20.63;10.67;;;13.30;99.90;;;;;;4993269;28;20559;-77
2022/06/07 02:16:38;;;;;;;18.53;11.43;;;13.40;99.90;;;;;;4992668;28;20203;-77
2022/06/07 02:19:05;;;;;;;21.77;11.73;;;13.40;99.90;;;;;;4994530;28;20192;-79
2022/06/07 02:21:31;;;;;;;19.77;11.57;;;13.40;99.90;;;;;;4993153;28;20198;-78
2022/06/07 02:23:57;;;;;;;24.13;13.23;;;13.40;99.90;;;;;;4993473;28;20771;-78
2022/06/07 02:26:42;;;;;;;22.63;12.13;;;13.40;99.90;;;;;;4992956;28;20264;-75
2022/06/07 02:29:31;;;;;;;26.63;13.27;;;13.30;99.90;;;;;;4992984;28;20291;-77
2022/06/07 02:32:11;;;;;;;26.77;13.30;;;13.40;99.90;;;;;;4992841;28;20189;-79
2022/06/07 02:34:40;;;;;;;25.97;13.87;;;13.40;99.90;;;;;;4993511;28;20240;-78
2022/06/07 02:37:07;;;;;;;28.17;14.80;;;13.50;99.90;;;;;;4992998;28;20178;-79
2022/06/07 02:39:35;;;;;;;27.47;14.07;;;13.40;99.90;;;;;;4992954;28;20177;-76
2022/06/07 02:42:02;;;;;;;26.03;13.37;;;13.40;99.90;;;;;;4992979;28;20675;-77
2022/06/07 02:44:28;;;;;;;25.23;13.53;;;13.30;99.90;;;;;;4993167;28;20170;-75
2022/06/07 02:46:54;;;;;;;23.57;12.83;;;13.30;99.90;;;;;;4992870;28;20177;-77
2022/06/07 02:49:19;;;;;;;28.17;13.73;;;13.20;99.90;;;;;;4993313;28;20263;-77
2022/06/07 02:51:45;;;;;;;24.00;13.87;;;13.20;99.90;;;;;;4993112;28;20248;-77
2022/06/07 02:54:12;;;;;;;27.83;14.23;;;13.20;99.90;;;;;;4993577;28;20192;-77
2022/06/07 02:56:38;;;;;;;29.77;15.50;;;13.20;99.90;;;;;;4993302;28;20277;-77
2022/06/07 02:59:04;;;;;;;32.97;15.53;;;13.20;99.90;;;;;;4993206;28;20207;-77
2022/06/07 03:01:30;;;;;;;33.17;16.07;;;13.20;99.90;;;;;;4992208;28;20192;-78
2022/06/07 03:03:58;;;;;;;30.03;14.63;;;13.10;99.90;;;;;;4993119;28;20178;-78
2022/06/07 03:06:24;;;;;;;31.97;16.40;;;13.20;99.90;;;;;;4992800;28;20620;-77
2022/06/07 03:08:49;;;;;;;29.67;15.57;;;13.20;99.90;;;;;;4992186;28;20241;-80
2022/06/07 03:11:15;;;;;;;27.73;16.03;;;13.20;99.90;;;;;;4992295;28;20254;-78
2022/06/07 03:13:41;;;;;;;28.17;15.07;;;13.20;99.90;;;;;;4992845;28;20243;-78
2022/06/07 03:16:06;;;;;;;29.77;16.13;;;13.20;99.90;;;;;;4991969;28;20659;-75
2022/06/07 03:18:32;;;;;;;33.60;16.43;;;13.20;99.90;;;;;;4992032;28;20185;-76
2022/06/07 03:20:57;;;;;;;29.30;15.67;;;13.20;99.90;;;;;;4992359;28;20193;-77
2022/06/07 03:23:23;;;;;;;28.00;15.97;;;13.10;99.90;;;;;;4993053;28;20180;-77
2022/06/07 03:25:49;;;;;;;26.00;16.00;;;13.10;99.90;;;;;;4993055;28;20542;-77
2022/06/07 03:28:15;;;;;;;28.57;16.47;;;13.20;99.90;;;;;;4992575;28;20195;-75
2022/06/07 03:30:41;;;;;;;28.53;16.47;;;13.30;99.90;;;;;;4992227;28;20178;-77
2022/06/07 03:33:07;;;;;;;27.43;15.77;;;13.30;99.90;;;;;;4992573;28;20211;-75
2022/06/07 03:35:33;;;;;;;26.33;15.63;;;13.20;99.90;;;;;;4993172;28;20169;-76
2022/06/07 03:37:59;;;;;;;30.83;16.17;;;13.20;99.90;;;;;;4992494;28;20200;-79
2022/06/07 03:43:08;;;;;;;25.57;14.87;;;13.30;99.90;;;;;;4994342;28;20174;-75
2022/06/07 03:45:34;;;;;;;22.83;14.97;;;13.30;99.90;;;;;;4992985;28;20184;-78
2022/06/07 03:48:00;;;;;;;28.80;15.50;;;13.30;99.90;;;;;;4993088;28;20196;-78
2022/06/07 03:50:26;;;;;;;23.37;13.40;;;13.40;99.90;;;;;;4992765;28;20184;-79
2022/06/07 03:52:52;;;;;;;24.33;14.40;;;13.50;99.90;;;;;;4992222;28;20206;-79
2022/06/07 03:55:17;;;;;;;20.73;13.03;;;13.50;99.90;;;;;;5007276;23;20688;-82
2022/06/07 03:57:43;;;;;;;23.03;13.80;;;13.50;99.90;;;;;;4992789;28;20215;-81
2022/06/07 04:00:10;;;;;;;22.00;13.40;;;13.50;99.90;;;;;;4992029;28;20210;-81
2022/06/07 04:02:36;;;;;;;24.53;13.93;;;13.50;99.90;;;;;;4991930;28;20194;-81
2022/06/07 04:05:01;;;;;;;21.47;13.23;;;13.50;99.90;;;;;;4991930;28;20198;-82
2022/06/07 04:10:11;;;;;;;17.50;12.17;;;13.50;99.90;;;;;;4995105;28;20224;-82
2022/06/07 04:12:37;;;;;;;25.63;12.83;;;13.60;99.90;;;;;;4993521;28;20610;-82
2022/06/07 04:15:02;;;;;;;20.43;11.47;;;13.60;99.90;;;;;;4992446;28;20282;-82
2022/06/07 04:17:28;;;;;;;18.70;11.33;;;13.60;99.90;;;;;;4993415;28;20210;-82
2022/06/07 04:19:54;;;;;;;17.97;10.50;;;13.60;99.90;;;;;;4994030;28;20178;-82
2022/06/07 04:22:20;;;;;;;18.37;10.80;;;13.70;99.90;;;;;;4993726;28;20579;-82
2022/06/07 04:24:46;;;;;;;21.83;10.50;;;13.70;99.90;;;;;;4994313;28;20248;-82
2022/06/07 04:27:12;;;;;;;16.37;10.20;;;13.70;99.90;;;;;;4995375;28;20631;-82
2022/06/07 04:29:38;;;;;;;18.20;9.00;;;13.80;99.90;;;;;;4996124;28;20633;-79
2022/06/07 04:32:04;;;;;;;13.30;10.07;;;13.80;99.90;;;;;;4994643;28;20276;-80
2022/06/07 04:34:29;;;;;;;15.17;9.40;;;13.80;99.90;;;;;;4994125;28;20270;-79
2022/06/07 04:36:55;;;;;;;16.63;9.07;;;13.80;99.90;;;;;;4995531;28;20188;-79
2022/06/07 04:39:21;;;;;;;13.83;9.00;;;13.80;99.90;;;;;;4995136;28;20694;-80
2022/06/07 04:41:47;;;;;;;15.83;8.60;;;13.80;99.90;;;;;;4994967;28;20197;-79
2022/06/07 04:44:12;;;;;;;14.23;7.53;;;13.90;99.90;;;;;;4997380;28;20178;-79
2022/06/07 04:46:38;;;;;;;19.00;7.43;;;13.80;99.90;;;;;;4996904;28;20168;-79
2022/06/07 04:49:04;;;;;;;15.10;7.90;;;13.90;99.90;;;;;;4996434;28;20290;-79
2022/06/07 04:51:33;;;;;;;10.20;7.07;;;13.90;99.90;;;;;;4996801;28;20229;-79
2022/06/07 04:54:00;;;;;;;12.23;6.97;;;13.90;99.90;;;;;;4996691;28;20252;-79
2022/06/07 04:56:28;;;;;;;11.40;7.00;;;14.00;99.90;;;;;;4996409;28;20174;-79
2022/06/07 04:58:55;;;;;;;13.70;6.27;;;14.10;99.90;;;;;;4997417;28;20598;-80
2022/06/07 05:01:24;;;;;;;11.60;6.70;;;14.10;99.90;;;;;;4997658;28;20574;-79
2022/06/07 05:03:51;;;;;;;7.53;6.00;;;14.10;99.90;;;;;;4996510;28;20175;-80
2022/06/07 05:06:28;;;;;;;7.00;5.57;;;14.10;99.90;;;;;;4996566;28;20639;-79
2022/06/07 05:08:59;;;;;;;10.63;6.23;;;14.10;99.90;;;;;;4996414;28;20664;-79
2022/06/07 05:11:25;;;;;;;11.60;5.70;;;14.10;99.90;;;;;;4996066;28;20191;-79
2022/06/07 05:13:55;;;;;;;10.53;5.60;;;14.20;99.90;;;;;;4997735;28;20171;-79
2022/06/07 05:16:22;;;;;;;11.97;5.37;;;14.10;99.90;;;;;;4996236;28;20631;-80
2022/06/07 05:18:50;;;;;;;7.50;4.87;;;14.10;99.90;;;;;;4996422;28;20186;-79
2022/06/07 05:21:16;;;;;;;8.63;4.90;;;14.20;99.90;;;;;;4996342;28;20195;-79
2022/06/07 05:23:43;;;;;;;7.57;4.90;;;14.20;99.90;;;;;;4996041;28;20210;-79
2022/06/07 05:26:12;;;;;;;10.47;5.10;;;14.30;99.90;;;;;;4996560;28;20395;-79
2022/06/07 05:28:41;;;;;;;9.83;5.10;;;14.20;99.90;;;;;;4996682;28;20305;-80
2022/06/07 05:31:07;;;;;;;8.53;4.80;;;14.20;99.90;;;;;;4996166;28;20230;-79
2022/06/07 05:33:32;;;;;;;6.37;4.53;;;14.20;99.90;;;;;;4996091;28;20183;-79
2022/06/07 05:35:58;;;;;;;12.70;5.17;;;14.10;99.90;;;;;;4995649;28;20354;-79
2022/06/07 05:38:24;;;;;;;11.50;5.57;;;14.00;99.90;;;;;;4995846;28;20179;-79
2022/06/07 05:40:51;;;;;;;13.73;5.40;;;13.90;99.90;;;;;;4995694;28;20643;-79
2022/06/07 05:43:17;;;;;;;10.80;4.73;;;13.90;99.90;;;;;;4996389;28;20268;-79
2022/06/07 05:45:50;;;;;;;8.30;5.00;;;13.90;99.90;;;;;;4995838;28;20650;-79
2022/06/07 05:48:16;;;;;;;10.10;4.87;;;14.10;99.90;;;;;;4995569;28;20207;-79
2022/06/07 05:50:50;;;;;;;8.67;4.87;;;14.20;99.90;;;;;;4996153;28;20175;-79
2022/06/07 05:53:17;;;;;;;10.60;4.43;;;14.10;99.90;;;;;;4994657;28;20178;-80
2022/06/07 05:55:43;;;;;;;10.33;5.37;;;14.20;99.90;;;;;;4995799;28;20200;-80
2022/06/07 05:58:10;;;;;;;10.50;4.83;;;14.30;99.90;;;;;;4995417;28;20187;-79
2022/06/07 06:00:37;;;;;;;9.93;4.53;;;14.30;99.90;;;;;;4995969;28;20186;-82
2022/06/07 06:03:02;;;;;;;10.10;4.47;;;14.30;99.90;;;;;;4994969;28;20171;-79
2022/06/07 06:05:28;;;;;;;7.97;4.43;;;14.30;99.90;;;;;;4995119;28;20182;-79
2022/06/07 06:10:38;;;;;;;6.47;3.97;;;14.40;99.90;;;;;;4996651;28;20217;-79
2022/06/07 06:13:03;;;;;;;5.77;4.00;;;14.40;99.90;;;;;;4994586;28;20175;-79
2022/06/07 06:15:29;;;;;;;8.60;4.37;;;14.40;99.90;;;;;;4995946;28;20180;-79
2022/06/07 06:17:55;;;;;;;6.87;4.10;;;14.50;99.90;;;;;;4994475;28;20175;-79
2022/06/07 06:20:22;;;;;;;8.37;4.30;;;14.60;99.90;;;;;;4993995;28;20187;-78
2022/06/07 06:22:48;;;;;;;9.47;3.90;;;14.60;99.90;;;;;;4994630;28;20289;-79
2022/06/07 06:25:14;;;;;;;11.33;4.37;;;14.60;99.90;;;;;;4993416;28;20620;-78
2022/06/07 06:27:39;;;;;;;8.67;3.53;;;14.60;99.90;;;;;;4993963;28;20211;-78
2022/06/07 06:30:07;;;;;;;13.60;4.17;;;14.70;99.90;;;;;;4993871;28;20266;-78
2022/06/07 06:32:32;;;;;;;6.60;4.33;;;14.60;99.90;;;;;;4994362;28;20683;-78
2022/06/07 06:34:58;;;;;;;8.93;4.20;;;14.60;99.90;;;;;;4993289;28;20266;-78
2022/06/07 06:37:27;;;;;;;11.17;3.97;;;14.60;99.90;;;;;;4993915;28;20186;-78
2022/06/07 06:39:55;;;;;;;7.87;4.03;;;14.70;99.90;;;;;;4992926;28;20282;-78
2022/06/07 06:42:21;;;;;;;10.60;3.73;;;14.70;99.90;;;;;;4992431;28;20211;-78
2022/06/07 06:44:47;;;;;;;10.27;3.73;;;14.80;99.90;;;;;;4993254;28;20674;-79
2022/06/07 06:47:13;;;;;;;10.33;4.50;;;14.90;99.90;;;;;;4993224;28;20666;-78
2022/06/07 06:49:41;;;;;;;8.90;3.73;;;14.90;99.90;;;;;;4992866;28;20246;-78
2022/06/07 06:52:07;;;;;;;5.90;4.00;;;15.00;99.90;;;;;;4993302;28;20195;-78
2022/06/07 06:54:34;;;;;;;9.33;4.30;;;15.10;99.90;;;;;;4993118;28;20194;-78
2022/06/07 06:57:00;;;;;;;9.50;4.07;;;15.30;99.90;;;;;;4992692;28;20245;-78
2022/06/07 06:59:26;;;;;;;11.30;3.80;;;15.20;99.90;;;;;;4992825;28;20174;-79
2022/06/07 07:01:52;;;;;;;6.30;3.97;;;15.20;99.90;;;;;;4992365;28;20195;-79
2022/06/07 07:04:19;;;;;;;7.07;3.67;;;15.20;99.90;;;;;;4993135;28;20187;-78
2022/06/07 07:06:47;;;;;;;6.90;3.60;;;15.10;99.90;;;;;;4992604;28;20245;-78
2022/06/07 07:09:14;;;;;;;5.40;3.80;;;15.00;99.90;;;;;;4992569;28;20207;-79
2022/06/07 07:11:45;;;;;;;5.63;3.50;;;14.90;99.90;;;;;;4994543;28;20191;-79
2022/06/07 07:14:11;;;;;;;7.33;4.07;;;14.90;99.90;;;;;;4993336;28;20178;-79
2022/06/07 07:16:42;;;;;;;9.00;4.60;;;15.00;99.90;;;;;;4993442;28;20175;-79
2022/06/07 07:19:09;;;;;;;7.53;4.43;;;15.00;99.90;;;;;;4995146;28;20183;-79
2022/06/07 07:21:41;;;;;;;14.33;5.00;;;15.00;99.90;;;;;;4993142;28;20237;-78
2022/06/07 07:24:13;;;;;;;13.43;5.60;;;14.90;99.90;;;;;;4992920;28;20185;-78
2022/06/07 07:26:43;;;;;;;7.37;5.00;;;15.00;99.90;;;;;;4992717;28;20270;-79
2022/06/07 07:29:11;;;;;;;9.27;5.33;;;15.00;99.90;;;;;;4992555;28;20211;-78
2022/06/07 07:31:38;;;;;;;11.67;5.17;;;15.20;99.90;;;;;;4992905;28;20195;-79
2022/06/07 07:34:07;;;;;;;9.43;5.00;;;15.30;99.90;;;;;;4993758;28;20176;-79
2022/06/07 07:36:33;;;;;;;12.10;5.50;;;15.40;99.90;;;;;;4993359;28;20226;-79
2022/06/07 07:39:00;;;;;;;10.43;5.13;;;15.50;99.90;;;;;;4992659;28;20194;-79
2022/06/07 07:41:30;;;;;;;12.70;5.17;;;15.40;99.90;;;;;;4995068;28;20195;-78
2022/06/07 07:43:58;;;;;;;9.47;6.20;;;15.40;99.90;;;;;;4993999;28;20648;-79
2022/06/07 07:46:27;;;;;;;16.03;6.80;;;15.30;99.90;;;;;;4992422;28;20184;-79
2022/06/07 07:48:52;;;;;;;13.90;6.90;;;15.30;99.90;;;;;;4992344;28;20206;-78
2022/06/07 07:51:21;;;;;;;14.57;6.37;;;15.20;99.90;;;;;;4992555;28;20195;-79
2022/06/07 07:53:47;;;;;;;10.20;6.10;;;15.40;99.90;;;;;;4993071;28;20175;-79
2022/06/07 07:56:14;;;;;;;8.57;6.00;;;15.70;99.90;;;;;;4993407;28;20266;-79
2022/06/07 07:58:40;;;;;;;12.57;6.43;;;16.20;99.90;;;;;;4994067;28;20270;-79
2022/06/07 08:01:14;;;;;;;10.43;5.90;;;16.70;99.90;;;;;;4994225;28;20696;-79
2022/06/07 08:03:41;;;;;;;11.67;6.00;;;16.80;99.90;;;;;;4995551;28;20545;-79
2022/06/07 08:06:09;;;;;;;11.93;7.10;;;16.70;99.90;;;;;;4995293;28;20269;-79
2022/06/07 08:08:36;;;;;;;12.20;6.60;;;16.60;99.90;;;;;;4994745;28;20206;-79
2022/06/07 08:11:02;;;;;;;11.50;6.47;;;17.00;99.90;;;;;;4994784;28;20195;-80
2022/06/07 08:13:28;;;;;;;14.93;6.67;;;17.00;99.90;;;;;;4995854;28;20266;-79
2022/06/07 08:15:53;;;;;;;9.90;6.63;;;16.90;99.90;;;;;;4996930;28;20202;-79
2022/06/07 08:18:19;;;;;;;9.93;6.33;;;16.80;99.90;;;;;;4997484;28;20275;-78
2022/06/07 08:20:46;;;;;;;12.17;6.67;;;17.00;99.90;;;;;;4997220;28;20175;-79
2022/06/07 08:23:13;;;;;;;10.27;5.90;;;17.40;99.90;;;;;;4996125;28;20266;-79
2022/06/07 08:25:38;;;;;;;13.00;6.77;;;17.60;99.90;;;;;;4996912;28;20190;-79
2022/06/07 08:28:05;;;;;;;10.00;6.50;;;17.50;99.90;;;;;;4998950;28;20203;-79
2022/06/07 08:30:32;;;;;;;10.77;6.20;;;17.20;99.90;;;;;;4997226;28;20179;-79
2022/06/07 08:32:59;;;;;;;8.40;6.43;;;17.10;99.90;;;;;;4998359;28;20182;-79
2022/06/07 08:38:09;;;;;;;11.67;6.93;;;16.90;99.90;;;;;;5000577;28;20597;-79
2022/06/07 08:40:43;;;;;;;12.97;7.10;;;16.70;99.90;;;;;;4996128;28;20211;-79
2022/06/07 08:43:18;;;;;;;11.53;6.83;;;16.80;99.90;;;;;;4994788;28;20202;-78
2022/06/07 08:45:47;;;;;;;10.90;6.93;;;16.90;99.90;;;;;;4996028;28;20183;-78
2022/06/07 08:48:18;;;;;;;7.93;6.47;;;17.00;99.90;;;;;;4996144;28;20294;-78
2022/06/07 08:50:50;;;;;;;12.10;7.13;;;16.80;99.90;;;;;;4995335;28;20180;-78
2022/06/07 08:53:27;;;;;;;11.90;7.03;;;17.00;99.90;;;;;;4995403;28;20644;-79
2022/06/07 08:55:58;;;;;;;10.97;7.43;;;16.90;99.90;;;;;;4996031;28;20659;-79
2022/06/07 08:58:39;;;;;;;12.80;7.60;;;16.90;99.90;;;;;;4996373;28;20178;-79
2022/06/07 09:01:37;;;;;;;13.37;7.67;;;17.00;99.90;;;;;;4996144;28;20195;-79
2022/06/07 09:04:21;;;;;;;10.40;7.23;;;17.00;99.90;;;;;;4994248;28;20193;-79
2022/06/07 09:06:56;;;;;;;9.43;7.00;;;16.90;99.90;;;;;;4996154;28;20175;-79
2022/06/07 09:12:24;;;;;;;11.60;7.13;;;17.10;99.90;;;;;;4997914;28;20198;-79
2022/06/07 09:15:12;;;;;;;9.33;7.37;;;17.30;99.90;;;;;;4997145;28;20628;-78
2022/06/07 09:17:48;;;;;;;13.33;7.97;;;17.30;99.90;;;;;;4997170;28;20175;-79
2022/06/07 09:20:20;;;;;;;12.23;8.07;;;17.40;99.90;;;;;;4997274;28;20718;-78
2022/06/07 09:22:52;;;;;;;11.60;7.47;;;17.40;99.90;;;;;;4996639;28;20203;-79
2022/06/07 09:25:30;;;;;;;11.53;8.10;;;17.60;99.90;;;;;;4996529;28;20175;-79
2022/06/07 09:27:58;;;;;;;12.90;8.10;;;17.40;99.90;;;;;;4996763;28;20268;-78
2022/06/07 09:30:27;;;;;;;11.67;7.97;;;17.70;99.90;;;;;;4996060;28;20179;-79
2022/06/07 09:32:54;;;;;;;11.80;7.93;;;17.70;99.90;;;;;;4995541;28;20199;-79
2022/06/07 09:35:42;;;;;;;13.77;7.70;;;17.80;99.90;;;;;;4995556;28;20171;-79
2022/06/07 09:38:18;;;;;;;16.43;7.37;;;17.90;99.90;;;;;;4996187;28;20182;-79
2022/06/07 09:40:54;;;;;;;11.93;7.13;;;18.10;99.90;;;;;;4995289;28;20175;-79
2022/06/07 09:43:28;;;;;;;13.10;7.80;;;18.30;99.90;;;;;;4995180;28;20187;-78
2022/06/07 09:46:05;;;;;;;9.80;6.63;;;18.30;99.90;;;;;;4994557;28;20179;-79
2022/06/07 09:48:44;;;;;;;13.50;7.43;;;18.30;99.90;;;;;;4995757;28;20207;-79
2022/06/07 09:51:19;;;;;;;11.43;6.77;;;18.30;99.90;;;;;;4995641;28;20749;-79
2022/06/07 09:54:13;;;;;;;13.13;6.30;;;18.40;99.90;;;;;;4994987;28;20183;-79
2022/06/07 09:56:51;;;;;;;9.87;6.20;;;18.60;99.90;;;;;;4997034;28;20544;-79
2022/06/07 09:59:37;;;;;;;11.10;6.63;;;18.50;99.90;;;;;;4996887;28;20305;-79
2022/06/07 10:02:21;;;;;;;12.63;6.10;;;18.80;99.90;;;;;;4995726;28;20233;-79
2022/06/07 10:04:46;;;;;;;7.83;5.53;;;18.90;99.90;;;;;;4996778;28;20175;-79
2022/06/07 10:07:35;;;;;;;9.33;5.60;;;18.90;99.90;;;;;;4998477;28;20186;-79
2022/06/07 10:10:25;;;;;;;7.97;5.13;;;18.80;99.90;;;;;;4996428;28;20167;-79
2022/06/07 10:13:20;;;;;;;9.40;5.30;;;19.10;99.90;;;;;;4997588;28;20204;-79
2022/06/07 10:16:12;;;;;;;9.53;4.73;;;19.30;99.90;;;;;;4994974;28;20613;-78
2022/06/07 10:18:46;;;;;;;12.77;5.07;;;19.40;99.90;;;;;;4995251;28;20190;-78
2022/06/07 10:21:23;;;;;;;7.70;4.87;;;19.00;99.90;;;;;;4994221;28;20207;-79
2022/06/07 10:23:59;;;;;;;5.73;4.33;;;19.00;99.90;;;;;;4994971;28;20242;-78
2022/06/07 10:27:02;;;;;;;5.80;4.10;;;19.00;99.90;;;;;;4995974;28;20185;-79
2022/06/07 10:29:53;;;;;;;7.50;4.77;;;19.30;99.90;;;;;;4994715;28;20206;-78
2022/06/07 10:32:24;;;;;;;9.20;3.90;;;19.80;99.90;;;;;;4996019;28;20203;-78
2022/06/07 10:34:58;;;;;;;5.40;3.70;;;19.80;99.90;;;;;;4994709;28;20184;-79
2022/06/07 10:37:33;;;;;;;4.85;3.90;;;19.80;99.90;;;;;;4995963;28;20179;-79
2022/06/07 10:41:01;;;;;;;5.22;3.72;;;19.80;99.90;;;;;;4995206;28;20178;-78
2022/06/07 10:43:57;;;;;;;8.50;4.37;;;19.40;99.90;;;;;;4959121;28;20180;-78
2022/06/07 10:46:25;;;;;;;5.85;3.47;;;19.20;99.90;;;;;;4963016;28;20183;-80
2022/06/07 10:49:21;;;;;;;8.03;3.40;;;19.40;99.90;;;;;;4984909;28;20223;-79
2022/06/07 10:52:21;;;;;;;6.33;3.33;;;19.50;99.90;;;;;;4995907;28;20635;-79
2022/06/07 10:54:54;;;;;;;4.30;3.90;;;19.70;99.90;;;;;;4995484;28;20289;-79
2022/06/07 10:57:29;;;;;;;7.03;3.40;;;19.80;99.90;;;;;;4996948;28;20184;-80
2022/06/07 11:02:37;;;;;;;5.05;3.30;;;19.70;99.90;;;;;;5014291;28;20218;-79
2022/06/07 11:11:10;;;;;;;6.30;2.93;;;19.40;99.90;;;;;;5016379;28;20685;-79
2022/06/07 11:13:50;;;;;;;6.63;3.40;;;19.30;99.90;;;;;;5013897;28;20170;-78
2022/06/07 11:16:30;;;;;;;3.60;3.30;;;19.20;99.90;;;;;;5012633;28;20232;-79
2022/06/07 11:18:59;;;;;;;10.60;4.33;;;19.40;99.90;;;;;;5013593;28;20185;-79
2022/06/07 11:21:37;;;;;;;9.70;3.93;;;19.30;99.90;;;;;;5015532;28;20195;-78
2022/06/07 11:24:04;;;;;;;5.57;3.73;;;19.20;99.90;;;;;;5012608;28;20639;-79
2022/06/07 11:26:51;;;;;;;7.90;4.33;;;19.20;99.90;;;;;;5012439;28;20231;-77
2022/06/07 11:29:26;;;;;;;6.07;4.40;;;19.10;99.90;;;;;;5012482;28;20678;-79
2022/06/07 11:31:52;;;;;;;7.17;4.50;;;18.80;99.90;;;;;;5013863;28;20194;-79
2022/06/07 11:34:22;;;;;;;6.97;4.57;;;18.60;99.90;;;;;;5014804;28;20181;-79
2022/06/07 11:36:50;;;;;;;6.30;4.00;;;18.50;99.90;;;;;;5014212;28;20174;-79
2022/06/07 11:39:52;;;;;;;8.17;4.00;;;18.50;99.90;;;;;;5013624;28;20179;-79
2022/06/07 11:42:18;;;;;;;9.93;6.20;;;18.50;99.90;;;;;;5008933;28;20260;-79
2022/06/07 11:44:50;;;;;;;14.40;8.60;;;18.60;99.90;;;;;;5013132;28;20175;-79
2022/06/07 11:47:20;;;;;;;14.40;9.43;;;18.60;99.90;;;;;;5014567;28;20178;-79
2022/06/07 11:49:48;;;;;;;16.37;9.77;;;18.40;99.90;;;;;;5015737;28;20229;-79
2022/06/07 11:52:18;;;;;;;18.57;10.50;;;18.60;99.90;;;;;;5016143;28;20194;-79
2022/06/07 11:54:48;;;;;;;16.10;10.40;;;19.20;99.90;;;;;;5018981;28;20634;-79
2022/06/07 11:57:32;;;;;;;13.40;9.53;;;19.60;99.90;;;;;;5018435;28;20178;-79
2022/06/07 12:00:16;;;;;;;13.23;8.73;;;19.80;99.90;;;;;;5017579;28;20591;-78
2022/06/07 12:03:08;;;;;;;17.87;9.13;;;19.70;99.90;;;;;;5016928;28;20256;-79
2022/06/07 12:05:43;;;;;;;15.75;9.48;;;20.00;99.90;;;;;;5015955;28;20185;-79
2022/06/07 12:08:47;;;;;;;9.93;8.53;;;20.00;99.90;;;;;;5014855;28;20209;-78
2022/06/07 12:11:21;;;;;;;13.77;8.00;;;20.30;99.90;;;;;;5014431;28;20193;-77
2022/06/07 12:14:18;;;;;;;16.27;8.85;;;20.40;99.90;;;;;;5014749;28;20646;-78
2022/06/07 12:16:57;;;;;;;13.60;9.40;;;20.20;99.90;;;;;;5005592;28;20249;-78
2022/06/07 12:19:26;;;;;;;11.77;8.43;;;20.00;99.90;;;;;;5014172;28;20214;-77
2022/06/07 12:22:07;;;;;;;14.68;8.73;;;19.70;99.90;;;;;;5013521;28;20600;-77
2022/06/07 12:24:57;;;;;;;12.25;8.18;;;19.70;99.90;;;;;;5014876;28;20643;-78
2022/06/07 12:27:44;;;;;;;14.27;8.52;;;19.80;99.90;;;;;;5013756;28;20183;-77
2022/06/07 12:30:31;;;;;;;16.05;8.23;;;19.90;99.90;;;;;;5013631;28;20171;-78
2022/06/07 12:33:21;;;;;;;13.73;8.57;;;20.50;99.90;;;;;;5013556;28;20195;-77
2022/06/07 12:35:59;;;;;;;12.32;9.07;;;20.80;99.90;;;;;;5013836;28;20655;-77
2022/06/07 12:38:26;;;;;;;12.50;9.15;;;20.70;99.90;;;;;;5013477;28;20686;-77
2022/06/07 12:41:04;;;;;;;13.50;8.57;;;20.20;99.90;;;;;;5013544;28;20175;-77
2022/06/07 12:43:34;;;;;;;11.63;7.50;;;20.10;99.90;;;;;;5013976;28;20654;-77
2022/06/07 12:46:07;;;;;;;10.27;7.20;;;19.90;99.90;;;;;;5013871;28;20729;-78
2022/06/07 12:48:40;;;;;;;12.77;7.05;;;19.80;99.90;;;;;;5014397;28;20297;-78
2022/06/07 12:51:26;;;;;;;9.85;7.13;;;19.80;99.90;;;;;;5013728;28;20292;-78
2022/06/07 12:54:06;;;;;;;10.23;6.95;;;19.60;99.90;;;;;;5014047;28;20185;-78
2022/06/07 12:56:37;;;;;;;13.27;7.15;;;19.60;99.90;;;;;;5014222;28;20170;-78
2022/06/07 12:59:07;;;;;;;11.43;7.38;;;19.60;99.90;;;;;;5013405;28;20199;-77
2022/06/07 13:01:37;;;;;;;10.13;7.18;;;19.60;99.90;;;;;;5012347;28;20297;-77
2022/06/07 13:04:25;;;;;;;13.30;7.13;;;19.80;99.90;;;;;;5016786;28;20178;-84
2022/06/07 13:07:17;;;;;;;10.82;7.97;;;19.90;99.90;;;;;;5015926;28;20209;-85
2022/06/07 13:09:53;;;;;;;7.80;6.60;;;19.90;99.90;;;;;;5018913;28;20558;-86
2022/06/07 13:12:25;;;;;;;10.32;5.88;;;20.00;99.90;;;;;;5018636;28;20610;-85
2022/06/07 13:14:54;;;;;;;13.60;7.10;;;20.10;99.90;;;;;;5020196;28;20194;-84
2022/06/07 13:17:31;;;;;;;8.95;6.05;;;20.00;99.90;;;;;;5004701;28;20179;-86
2022/06/07 13:19:58;;;;;;;7.53;5.47;;;20.10;99.90;;;;;;5013483;28;20301;-83
2022/06/07 13:22:26;;;;;;;7.93;4.75;;;20.10;99.90;;;;;;5023581;28;20206;-83
2022/06/07 13:24:57;;;;;;;7.75;5.18;;;20.30;99.90;;;;;;5025239;28;20661;-84
2022/06/07 13:27:44;;;;;;;7.30;5.20;;;20.60;99.90;;;;;;5022801;28;20182;-85